createdAt,value
2023-01-06T00:02:47.622Z,94268.91
2023-01-06T00:07:52.258Z,94268.91
2023-01-06T00:12:55.757Z,94255.44
2023-01-06T00:17:59.257Z,94265.59
2023-01-06T00:23:03.798Z,94248.75
2023-01-06T00:28:07.477Z,94268.19
2023-01-06T00:33:11.258Z,94265.53
2023-01-06T00:38:14.928Z,94253.13
2023-01-06T00:43:18.015Z,94269.19
2023-01-06T00:48:21.779Z,94275.25
2023-01-06T00:53:25.276Z,94277.34
2023-01-06T00:58:32.872Z,94288.63
2023-01-06T01:03:38.460Z,94281.50
2023-01-06T01:08:42.102Z,94279.78
2023-01-06T01:13:45.284Z,94267.06
2023-01-06T01:18:49.256Z,94286.16
2023-01-06T01:23:52.430Z,94236.81
2023-01-06T01:28:56.096Z,94274.59
2023-01-06T01:34:02.246Z,94270.00
2023-01-06T01:39:06.459Z,94263.44
2023-01-06T01:44:46.965Z,94267.72
2023-01-06T01:49:54.690Z,94252.78
2023-01-06T01:54:58.287Z,94252.53
2023-01-06T02:00:05.364Z,94248.19
2023-01-06T02:05:22.909Z,94243.66
2023-01-06T02:10:26.758Z,94233.69
2023-01-06T02:15:36.650Z,94235.09
2023-01-06T02:21:39.172Z,94236.38
2023-01-06T02:26:45.414Z,94231.88
2023-01-06T02:32:14.785Z,94219.97
2023-01-06T02:37:25.461Z,94212.91
2023-01-06T02:42:43.875Z,94219.72
2023-01-06T02:48:12.182Z,94218.06
2023-01-06T02:53:22.492Z,94222.09
2023-01-06T02:58:48.726Z,94220.41
2023-01-06T03:03:54.125Z,94226.28
2023-01-06T03:09:02.004Z,94218.88
2023-01-06T03:14:18.623Z,94223.88
2023-01-06T03:19:22.599Z,94224.19
2023-01-06T03:24:26.420Z,94214.69
2023-01-06T03:29:30.969Z,94201.25
2023-01-06T03:35:02.792Z,94208.69
2023-01-06T03:40:31.371Z,94187.03
2023-01-06T03:45:51.945Z,94186.66
2023-01-06T03:51:25.885Z,94192.91
2023-01-06T03:56:39.802Z,94187.50
2023-01-06T04:01:44.529Z,94196.09
2023-01-06T04:06:49.139Z,94203.03
2023-01-06T04:12:12.273Z,94199.44
2023-01-06T04:17:16.564Z,94205.16
2023-01-06T04:22:20.029Z,94206.91
2023-01-06T04:27:23.528Z,94199.44
2023-01-06T04:32:27.144Z,94203.47
2023-01-06T04:37:30.854Z,94200.72
2023-01-06T04:42:54.052Z,94201.81
2023-01-06T04:47:57.674Z,94204.00
2023-01-06T04:53:03.218Z,94205.94
2023-01-06T04:58:06.331Z,94203.06
2023-01-06T05:03:09.767Z,94205.47
2023-01-06T05:08:13.547Z,94217.25
2023-01-06T05:13:16.568Z,94214.59
2023-01-06T05:18:19.597Z,94222.59
2023-01-06T05:23:22.942Z,94228.47
2023-01-06T05:28:26.644Z,94237.56
2023-01-06T05:33:30.199Z,94244.28
2023-01-06T05:38:34.349Z,94254.34
2023-01-06T05:43:39.660Z,94270.88
2023-01-06T05:48:42.810Z,94262.63
2023-01-06T05:53:47.918Z,94274.84
2023-01-06T05:58:53.084Z,94260.53
2023-01-06T06:03:56.892Z,94266.81
2023-01-06T06:09:00.024Z,94273.13
2023-01-06T06:14:04.074Z,94274.94
2023-01-06T06:19:07.346Z,94287.03
2023-01-06T06:24:11.020Z,94297.19
2023-01-06T06:29:16.667Z,94307.06
2023-01-06T06:34:20.000Z,94308.22
2023-01-06T06:39:23.618Z,94306.56
2023-01-06T06:44:26.818Z,94310.63
2023-01-06T06:49:30.289Z,94305.78
2023-01-06T06:54:33.964Z,94313.00
2023-01-06T06:59:37.498Z,94313.75
2023-01-06T07:04:41.367Z,94313.59
2023-01-06T07:09:45.340Z,94322.06
2023-01-06T07:14:48.424Z,94312.31
2023-01-06T07:19:51.569Z,94318.41
2023-01-06T07:24:54.773Z,94315.06
2023-01-06T07:29:57.822Z,94299.00
2023-01-06T07:35:01.986Z,94286.22
2023-01-06T07:40:05.741Z,94286.47
2023-01-06T07:45:10.166Z,94295.53
2023-01-06T07:50:14.332Z,94290.78
2023-01-06T07:55:18.266Z,94297.47
2023-01-06T08:00:22.737Z,94299.22
2023-01-06T08:05:26.502Z,94298.25
2023-01-06T08:10:29.563Z,94309.84
2023-01-06T08:15:32.830Z,94309.44
2023-01-06T08:20:36.591Z,94315.25
2023-01-06T08:25:40.114Z,94312.94
2023-01-06T08:30:44.447Z,94330.13
2023-01-06T08:35:47.975Z,94320.84
2023-01-06T08:40:53.712Z,94332.03
2023-01-06T08:46:07.740Z,94337.94
2023-01-06T08:51:19.757Z,94329.75
2023-01-06T08:56:25.508Z,94338.72
2023-01-06T09:01:32.315Z,94337.41
2023-01-06T09:06:36.280Z,94343.19
2023-01-06T09:11:44.420Z,94341.34
2023-01-06T09:16:49.107Z,94339.13
2023-01-06T09:21:53.174Z,94339.69
2023-01-06T09:26:56.182Z,94340.03
2023-01-06T09:31:59.524Z,94327.78
2023-01-06T09:37:03.240Z,94327.56
2023-01-06T09:42:27.594Z,94313.47
2023-01-06T09:47:45.544Z,94320.19
2023-01-06T09:53:03.092Z,94316.84
2023-01-06T09:58:15.519Z,94323.50
2023-01-06T10:03:28.083Z,94305.94
2023-01-06T10:08:59.196Z,94303.31
2023-01-06T10:14:26.139Z,94306.19
2023-01-06T10:19:39.236Z,94296.25
2023-01-06T10:24:57.203Z,94295.81
2023-01-06T10:30:01.748Z,94290.06
2023-01-06T10:35:13.734Z,94290.91
2023-01-06T10:40:29.601Z,94295.81
2023-01-06T10:45:34.858Z,94286.06
2023-01-06T10:50:39.236Z,94279.06
2023-01-06T10:55:48.872Z,94279.03
2023-01-06T11:00:57.085Z,94273.22
2023-01-06T11:06:19.139Z,94279.22
2023-01-06T11:11:29.094Z,94272.94
2023-01-06T11:16:36.548Z,94269.31
2023-01-06T11:21:47.161Z,94268.66
2023-01-06T11:26:54.791Z,94267.81
2023-01-06T11:32:03.210Z,94265.56
2023-01-06T11:37:06.321Z,94265.56
2023-01-06T11:42:15.170Z,94260.41
2023-01-06T11:47:23.623Z,94255.31
2023-01-06T11:52:33.288Z,94254.53
2023-01-06T11:57:45.191Z,94254.09
2023-01-06T12:03:10.109Z,94247.81
2023-01-06T12:08:27.283Z,94243.09
2023-01-06T12:13:30.246Z,94246.25
2023-01-06T12:18:38.664Z,94240.31
2023-01-06T12:23:45.256Z,94238.69
2023-01-06T12:28:51.240Z,94231.63
2023-01-06T12:34:18.223Z,94230.50
2023-01-06T12:39:55.801Z,94228.63
2023-01-06T12:45:11.015Z,94229.00
2023-01-06T12:50:26.952Z,94219.91
2023-01-06T12:55:43.207Z,94225.22
2023-01-06T13:00:53.092Z,94218.84
2023-01-06T13:06:21.884Z,94221.75
2023-01-06T13:11:42.970Z,94214.75
2023-01-06T13:17:09.563Z,94218.53
2023-01-06T13:22:18.518Z,94220.25
2023-01-06T13:27:32.584Z,94216.03
2023-01-06T13:32:43.973Z,94220.72
2023-01-06T13:38:19.684Z,94225.06
2023-01-06T13:43:27.175Z,94221.13
2023-01-06T13:48:55.597Z,94217.97
2023-01-06T13:54:00.671Z,94223.06
2023-01-06T13:59:22.783Z,94219.50
2023-01-06T14:04:42.355Z,94216.31
2023-01-06T14:09:50.694Z,94227.28
2023-01-06T14:15:04.381Z,94220.63
2023-01-06T14:20:30.746Z,94219.84
2023-01-06T14:25:40.424Z,94214.06
2023-01-06T14:30:44.261Z,94204.03
2023-01-06T14:35:48.172Z,94208.91
2023-01-06T14:41:00.007Z,94219.97
2023-01-06T14:46:09.466Z,94218.75
2023-01-06T14:51:17.927Z,94217.84
2023-01-06T14:56:24.114Z,94220.72
2023-01-06T15:01:32.998Z,94219.81
2023-01-06T15:06:36.399Z,94214.28
2023-01-06T15:11:43.152Z,94224.09
2023-01-06T15:16:46.943Z,94222.31
2023-01-06T15:21:53.150Z,94230.56
2023-01-06T15:27:03.093Z,94224.78
2023-01-06T15:32:13.421Z,94213.38
2023-01-06T15:37:23.953Z,94222.25
2023-01-06T15:42:28.104Z,94231.06
2023-01-06T15:47:47.764Z,94226.13
2023-01-06T15:52:58.081Z,94231.81
2023-01-06T15:58:07.602Z,94231.59
2023-01-06T16:03:19.240Z,94234.56
2023-01-06T16:08:27.712Z,94242.31
2023-01-06T16:13:31.242Z,94242.22
2023-01-06T16:18:37.071Z,94236.03
2023-01-06T16:23:41.433Z,94244.16
2023-01-06T16:28:49.601Z,94246.06
2023-01-06T16:33:54.950Z,94257.03
2023-01-06T16:38:58.254Z,94255.41
2023-01-06T16:44:01.641Z,94257.22
2023-01-06T16:49:10.936Z,94265.00
2023-01-06T16:54:18.974Z,94265.72
2023-01-06T16:59:27.118Z,94275.38
2023-01-06T17:04:30.418Z,94265.13
2023-01-06T17:09:35.393Z,94273.28
2023-01-06T17:14:38.753Z,94281.41
2023-01-06T17:19:43.231Z,94269.44
2023-01-06T17:24:47.022Z,94272.47
2023-01-06T17:29:51.871Z,94281.78
2023-01-06T17:34:56.306Z,94276.50
2023-01-06T17:39:59.880Z,94273.06
2023-01-06T17:45:18.709Z,94278.50
2023-01-06T17:50:35.147Z,94278.69
2023-01-06T17:55:49.111Z,94282.72
2023-01-06T18:00:54.743Z,94283.59
2023-01-06T18:06:01.367Z,94295.53
2023-01-06T18:11:11.881Z,94303.47
2023-01-06T18:16:35.720Z,94298.91
2023-01-06T18:21:40.458Z,94308.75
2023-01-06T18:26:50.051Z,94313.84
2023-01-06T18:31:54.961Z,94314.53
2023-01-06T18:36:59.902Z,94300.47
2023-01-06T18:42:22.039Z,94320.31
2023-01-06T18:47:25.565Z,94321.50
2023-01-06T18:52:39.035Z,94323.38
2023-01-06T18:57:46.187Z,94321.47
2023-01-06T19:02:52.651Z,94328.22
2023-01-06T19:07:57.697Z,94327.25
2023-01-06T19:13:04.042Z,94333.72
2023-01-06T19:18:14.985Z,94335.88
2023-01-06T19:23:24.142Z,94336.78
2023-01-06T19:28:31.931Z,94341.63
2023-01-06T19:33:47.874Z,94340.19
2023-01-06T19:38:50.962Z,94348.78
2023-01-06T19:44:15.579Z,94353.53
2023-01-06T19:49:56.298Z,94343.47
2023-01-06T19:55:27.039Z,94354.69
2023-01-06T20:00:40.393Z,94355.34
2023-01-06T20:05:44.180Z,94360.09
2023-01-06T20:10:47.314Z,94362.91
2023-01-06T20:15:51.058Z,94361.09
2023-01-06T20:20:54.613Z,94354.97
2023-01-06T20:25:58.264Z,94352.47
2023-01-06T20:31:02.209Z,94356.25
2023-01-06T20:36:07.201Z,94354.78
2023-01-06T20:41:11.354Z,94345.13
2023-01-06T20:46:14.838Z,94351.16
2023-01-06T20:51:18.545Z,94342.66
2023-01-06T20:56:21.659Z,94349.66
2023-01-06T21:01:25.164Z,94339.69
2023-01-06T21:06:28.623Z,94347.47
2023-01-06T21:11:31.681Z,94358.25
2023-01-06T21:16:35.537Z,94367.69
2023-01-06T21:21:38.723Z,94376.03
2023-01-06T21:26:41.816Z,94364.97
2023-01-06T21:31:45.485Z,94367.22
2023-01-06T21:36:48.794Z,94367.47
2023-01-06T21:42:11.036Z,94369.72
2023-01-06T21:47:16.247Z,94364.63
2023-01-06T21:52:19.865Z,94366.47
2023-01-06T21:57:23.008Z,94378.44
2023-01-06T22:02:26.180Z,94368.66
2023-01-06T22:07:30.126Z,94371.84
2023-01-06T22:12:33.942Z,94376.78
2023-01-06T22:17:37.501Z,94364.41
2023-01-06T22:22:42.107Z,94361.13
2023-01-06T22:27:45.364Z,94365.97
2023-01-06T22:32:49.492Z,94351.31
2023-01-06T22:37:52.699Z,94364.69
2023-01-06T22:42:57.190Z,94368.84
2023-01-06T22:48:03.769Z,94357.41
2023-01-06T22:53:07.657Z,94362.78
2023-01-06T22:58:11.851Z,94349.72
2023-01-06T23:03:15.215Z,94353.75
2023-01-06T23:08:18.786Z,94358.09
2023-01-06T23:13:22.010Z,94352.81
2023-01-06T23:18:25.434Z,94348.56
2023-01-06T23:23:30.163Z,94340.84
2023-01-06T23:28:34.865Z,94344.75
2023-01-06T23:33:42.831Z,94339.06
2023-01-06T23:38:47.001Z,94329.19
2023-01-06T23:43:51.514Z,94327.00
2023-01-06T23:48:54.983Z,94323.06
2023-01-06T23:54:03.257Z,94317.22
2023-01-06T23:59:08.739Z,94326.47
